Ford Heights, Illinois
Current Conditions -  °F | °C
As of 4:35 AM on Friday 24 Oct 2014 (Local Time) from KIGQ Reporting Station
Overcast Overcast  
Wind Chill: 11°   Ceiling: 2400
Heat Index: 11°   Visibility: 10mi
Dew Point:   Wind: 3mph
Humidity: 78%   Direction: 220°SW
Pressure: 30.06"   Gusts: NA
Location:  41.5054°N, 87.5907°W
Report Text: KIGQ 240935Z AUTO 22003KT 10SM OVC024 11/07 A3006 RMK AO2 T01090072
Loading
Personal Weather Stations






























Interactive Weather Map
Tropical Storm Tracking
New forecast layout! Learn more

10-Day Weather Forecast

Advertisements
Track Severe Weather on mobile